Time;durP1;ratioP1;P1;durP2;ratioP2;P2;SDS_P1;SDS_P2;PMS_P1;PMS_P2;Temp;Humidity;BMP_temperature;BMP_pressure;BME280_temperature;BME280_humidity;BME280_pressure;Samples;Min_cycle;Max_cycle;Signal;HPM_P1;HPM_P2
2024/03/12 00:01:55;;;;;;;;;;;;;;;6.93;100.00;95104.41;10532812;28;2850;-64
2024/03/12 00:06:58;;;;;;;;;;;;;;;6.80;100.00;95100.41;10535994;28;1914;-66
2024/03/12 00:12:02;;;;;;;;;;;;;;;6.78;100.00;95102.56;10527903;28;1996;-66
2024/03/12 00:17:07;;;;;;;;;;;;;;;6.75;100.00;95113.78;10525210;28;2777;-64
2024/03/12 00:22:11;;;;;;;;;;;;;;;6.87;100.00;95119.69;10513080;28;2820;-65
2024/03/12 00:27:18;;;;;;;;;;;;;;;6.91;100.00;95128.75;10518666;28;2783;-67
2024/03/12 00:32:22;;;;;;;;;;;;;;;6.94;100.00;95133.56;10517219;28;2854;-67
2024/03/12 00:37:25;;;;;;;;;;;;;;;6.92;100.00;95135.69;10518946;28;2832;-65
2024/03/12 00:42:27;;;;;;;;;;;;;;;6.97;100.00;95132.22;10511994;28;2907;-65
2024/03/12 00:47:30;;;;;;;;;;;;;;;6.96;100.00;95141.31;10510911;28;2951;-65
2024/03/12 00:52:34;;;;;;;;;;;;;;;6.94;100.00;95146.13;10511992;28;2840;-65
2024/03/12 00:57:39;;;;;;;;;;;;;;;6.91;100.00;95144.78;10511470;28;2802;-64
2024/03/12 01:02:44;;;;;;;;;;;;;;;6.84;100.00;95160.25;10511989;28;2931;-65
2024/03/12 01:07:47;;;;;;;;;;;;;;;6.80;100.00;95158.38;10511736;28;2835;-67
2024/03/12 01:12:50;;;;;;;;;;;;;;;6.76;100.00;95152.78;10515711;28;2899;-69
2024/03/12 01:17:54;;;;;;;;;;;;;;;6.83;100.00;95158.66;10514200;28;2926;-67
2024/03/12 01:22:57;;;;;;;;;;;;;;;6.90;100.00;95164.53;10509403;28;2839;-65
2024/03/12 01:28:00;;;;;;;;;;;;;;;6.88;100.00;95164.03;10511599;28;2937;-65
2024/03/12 01:33:05;;;;;;;;;;;;;;;6.91;100.00;95160.00;10508516;28;2875;-66
2024/03/12 01:38:09;;;;;;;;;;;;;;;6.98;100.00;95156.00;10514601;28;2926;-67
2024/03/12 01:43:14;;;;;;;;;;;;;;;6.95;100.00;95161.88;10509161;28;2793;-70
2024/03/12 01:48:16;;;;;;;;;;;;;;;6.91;100.00;95171.50;10508246;28;2783;-72
2024/03/12 01:53:19;;;;;;;;;;;;;;;6.86;100.00;95163.47;10509472;28;2900;-72
2024/03/12 01:58:22;;;;;;;;;;;;;;;6.86;100.00;95171.47;10509839;28;2824;-67
2024/03/12 02:03:25;;;;;;;;;;;;;;;6.85;100.00;95177.88;10511022;28;2808;-65
2024/03/12 02:08:29;;;;;;;;;;;;;;;6.83;100.00;95185.38;10515203;28;2822;-65
2024/03/12 02:13:31;;;;;;;;;;;;;;;6.72;100.00;95194.41;10511635;28;2788;-66
2024/03/12 02:18:34;;;;;;;;;;;;;;;6.72;100.00;95205.91;10509574;28;2804;-66
2024/03/12 02:23:37;;;;;;;;;;;;;;;6.71;100.00;95203.50;10512444;28;2796;-65
2024/03/12 02:28:40;;;;;;;;;;;;;;;6.68;100.00;95209.34;10507000;28;2852;-71
2024/03/12 02:33:42;;;;;;;;;;;;;;;6.67;100.00;95215.78;10509988;28;2801;-65
2024/03/12 02:38:45;;;;;;;;;;;;;;;6.65;100.00;95225.91;10512324;28;2879;-67
2024/03/12 02:43:48;;;;;;;;;;;;;;;6.69;100.00;95216.34;10510945;28;2914;-65
2024/03/12 02:48:51;;;;;;;;;;;;;;;6.82;100.00;95220.38;10507742;28;2856;-70
2024/03/12 02:53:54;;;;;;;;;;;;;;;6.90;100.00;95228.66;10507048;28;2796;-64
2024/03/12 02:58:56;;;;;;;;;;;;;;;6.84;100.00;95234.25;10509198;28;2867;-64
2024/03/12 03:03:59;;;;;;;;;;;;;;;6.82;100.00;95237.22;10507218;28;2902;-66
2024/03/12 03:09:02;;;;;;;;;;;;;;;6.78;100.00;95241.47;10507613;28;2928;-65
2024/03/12 03:14:05;;;;;;;;;;;;;;;6.83;100.00;95243.34;10505988;28;2889;-65
2024/03/12 03:19:08;;;;;;;;;;;;;;;6.80;100.00;95247.31;10500338;28;2911;-66
2024/03/12 03:24:11;;;;;;;;;;;;;;;6.81;100.00;95245.47;10495703;28;2849;-70
2024/03/12 03:29:13;;;;;;;;;;;;;;;6.75;100.00;95248.13;10498039;28;2752;-65
2024/03/12 03:34:17;;;;;;;;;;;;;;;6.85;100.00;95257.22;10506672;28;2826;-62
2024/03/12 03:39:20;;;;;;;;;;;;;;;6.78;100.00;95260.97;10505935;28;2956;-64
2024/03/12 03:44:28;;;;;;;;;;;;;;;6.66;100.00;95267.59;10498902;28;2916;-65
2024/03/12 03:49:30;;;;;;;;;;;;;;;6.58;100.00;95279.56;10505733;28;3047;-64
2024/03/12 03:54:33;;;;;;;;;;;;;;;6.54;100.00;95281.16;10505914;28;3355;-68
2024/03/12 03:59:36;;;;;;;;;;;;;;;6.41;100.00;95284.28;10512741;28;2897;-65
2024/03/12 04:04:39;;;;;;;;;;;;;;;6.33;100.00;95293.59;10500878;28;2871;-66
2024/03/12 04:09:42;;;;;;;;;;;;;;;6.30;100.00;95299.47;10500944;28;2843;-64
2024/03/12 04:14:45;;;;;;;;;;;;;;;6.32;100.00;95302.66;10504030;28;2931;-64
2024/03/12 04:19:48;;;;;;;;;;;;;;;6.38;100.00;95304.31;10510777;28;2813;-65
2024/03/12 04:24:53;;;;;;;;;;;;;;;6.44;100.00;95313.94;10510803;28;2818;-65
2024/03/12 04:29:56;;;;;;;;;;;;;;;6.45;100.00;95323.56;10502676;28;2875;-64
2024/03/12 04:34:58;;;;;;;;;;;;;;;6.54;100.00;95325.75;10506892;28;2839;-66
2024/03/12 04:40:06;;;;;;;;;;;;;;;6.56;100.00;95337.00;10513591;28;2894;-65
2024/03/12 04:45:09;;;;;;;;;;;;;;;6.68;100.00;95334.88;10510571;28;2922;-65
2024/03/12 04:50:14;;;;;;;;;;;;;;;6.62;100.00;95342.09;10512396;28;2870;-65
2024/03/12 04:55:17;;;;;;;;;;;;;;;6.65;100.00;95354.13;10514424;28;2846;-65
2024/03/12 05:00:21;;;;;;;;;;;;;;;6.65;100.00;95356.78;10512059;28;2930;-66
2024/03/12 05:05:24;;;;;;;;;;;;;;;6.64;100.00;95372.00;10510346;28;2832;-65
2024/03/12 05:10:27;;;;;;;;;;;;;;;6.67;100.00;95370.69;10511541;28;2874;-64
2024/03/12 05:15:29;;;;;;;;;;;;;;;6.69;100.00;95388.06;10511692;28;2892;-64
2024/03/12 05:20:33;;;;;;;;;;;;;;;6.60;100.00;95389.59;10512685;28;2828;-65
2024/03/12 05:25:39;;;;;;;;;;;;;;;6.66;100.00;95393.13;10510879;28;2850;-66
2024/03/12 05:30:43;;;;;;;;;;;;;;;6.68;100.00;95396.31;10507762;28;3010;-65
2024/03/12 05:35:49;;;;;;;;;;;;;;;6.56;100.00;95406.41;10510892;28;2817;-66
2024/03/12 05:41:14;;;;;;;;;;;;;;;6.61;100.00;95409.91;10508165;28;2812;-65
2024/03/12 05:51:38;;;;;;;;;;;;;;;6.82;100.00;95420.75;10518225;28;2812;-64
2024/03/12 05:56:41;;;;;;;;;;;;;;;6.82;100.00;95408.19;10507136;28;2847;-64
2024/03/12 06:01:46;;;;;;;;;;;;;;;6.84;100.00;95422.06;10523105;27;2795;-63
2024/03/12 06:06:48;;;;;;;;;;;;;;;6.92;100.00;95424.25;10505941;28;3143;-65
2024/03/12 06:11:51;;;;;;;;;;;;;;;6.91;100.00;95430.66;10501778;28;3249;-65
2024/03/12 06:16:54;;;;;;;;;;;;;;;6.93;100.00;95451.78;10506679;28;2854;-65
2024/03/12 06:21:57;;;;;;;;;;;;;;;6.89;100.00;95450.69;10514968;28;2829;-65
2024/03/12 06:27:01;;;;;;;;;;;;;;;6.93;100.00;95457.91;10517085;28;2810;-67
2024/03/12 06:32:05;;;;;;;;;;;;;;;7.13;100.00;95462.59;10516220;28;2792;-64
2024/03/12 06:37:09;;;;;;;;;;;;;;;7.23;100.00;95465.31;10508391;28;2868;-68
2024/03/12 06:42:13;;;;;;;;;;;;;;;7.37;100.00;95468.31;10507845;28;2801;-65
2024/03/12 06:47:15;;;;;;;;;;;;;;;7.43;100.00;95482.53;10512896;28;2811;-64
2024/03/12 06:52:18;;;;;;;;;;;;;;;7.28;100.00;95488.59;10511541;28;2958;-68
2024/03/12 06:57:22;;;;;;;;;;;;;;;7.28;100.00;95496.63;10502495;28;2796;-68
2024/03/12 07:02:25;;;;;;;;;;;;;;;7.10;100.00;95486.38;10503218;28;2833;-67
2024/03/12 07:07:29;;;;;;;;;;;;;;;7.07;100.00;95500.25;10513115;28;2840;-66
2024/03/12 07:12:32;;;;;;;;;;;;;;;7.20;100.00;95497.94;10498730;28;2908;-69
2024/03/12 07:17:36;;;;;;;;;;;;;;;7.39;100.00;95506.31;10506955;28;2888;-70
2024/03/12 07:22:42;;;;;;;;;;;;;;;7.54;100.00;95501.03;10509857;28;2903;-68
2024/03/12 07:27:48;;;;;;;;;;;;;;;7.54;100.00;95500.22;10498684;28;2837;-66
2024/03/12 07:32:51;;;;;;;;;;;;;;;7.48;100.00;95511.97;10493530;28;2895;-66
2024/03/12 07:37:54;;;;;;;;;;;;;;;7.49;100.00;95502.88;10504412;28;2923;-64
2024/03/12 07:42:56;;;;;;;;;;;;;;;7.54;100.00;95514.41;10498647;28;2819;-72
2024/03/12 07:47:59;;;;;;;;;;;;;;;7.63;100.00;95508.56;10499646;28;2875;-69
2024/03/12 07:53:05;;;;;;;;;;;;;;;7.84;100.00;95510.25;10514663;28;2821;-69
2024/03/12 07:58:10;;;;;;;;;;;;;;;8.14;100.00;95512.19;10507574;28;2884;-71
2024/03/12 08:03:13;;;;;;;;;;;;;;;8.64;100.00;95518.75;10504153;28;2874;-67
2024/03/12 08:08:16;;;;;;;;;;;;;;;9.09;100.00;95509.88;10507539;28;2808;-73
2024/03/12 08:13:18;;;;;;;;;;;;;;;9.30;100.00;95526.75;10521106;28;2816;-66
2024/03/12 08:18:21;;;;;;;;;;;;;;;9.17;100.00;95516.59;10513965;28;2840;-65
2024/03/12 08:23:24;;;;;;;;;;;;;;;9.27;100.00;95532.66;10514449;28;2944;-67
2024/03/12 08:28:27;;;;;;;;;;;;;;;9.31;100.00;95517.63;10514846;28;2884;-66
2024/03/12 08:33:29;;;;;;;;;;;;;;;9.26;100.00;95524.88;10507360;28;2832;-65
2024/03/12 08:38:33;;;;;;;;;;;;;;;9.12;100.00;95524.63;10511102;28;3116;-66
2024/03/12 08:43:36;;;;;;;;;;;;;;;9.50;100.00;95530.47;10509220;28;2849;-65
2024/03/12 08:48:43;;;;;;;;;;;;;;;9.44;100.00;95525.09;10503073;28;2857;-66
2024/03/12 08:53:46;;;;;;;;;;;;;;;9.35;100.00;95529.44;10515663;28;2856;-66
2024/03/12 08:58:49;;;;;;;;;;;;;;;9.62;100.00;95537.16;10508876;28;2844;-66
2024/03/12 09:03:52;;;;;;;;;;;;;;;9.97;100.00;95538.06;10511908;28;2990;-67
2024/03/12 09:08:55;;;;;;;;;;;;;;;10.29;100.00;95543.88;10510535;28;2903;-67
2024/03/12 09:13:58;;;;;;;;;;;;;;;10.42;100.00;95539.75;10509870;28;2863;-66
2024/03/12 09:19:01;;;;;;;;;;;;;;;9.92;100.00;95544.25;10510687;28;2929;-66
2024/03/12 09:24:05;;;;;;;;;;;;;;;9.79;100.00;95539.50;10509337;28;2909;-66
2024/03/12 09:29:07;;;;;;;;;;;;;;;9.94;100.00;95549.38;10508209;28;2872;-68
2024/03/12 09:34:10;;;;;;;;;;;;;;;10.41;100.00;95545.41;10508244;28;2910;-68
2024/03/12 09:39:13;;;;;;;;;;;;;;;10.22;100.00;95548.72;10504806;28;2840;-68
2024/03/12 09:44:16;;;;;;;;;;;;;;;10.22;100.00;95548.72;10504274;28;2837;-70
2024/03/12 09:49:19;;;;;;;;;;;;;;;10.20;100.00;95545.50;10511115;28;2908;-67
2024/03/12 09:54:21;;;;;;;;;;;;;;;10.06;100.00;95543.69;10504885;28;2804;-67
2024/03/12 09:59:25;;;;;;;;;;;;;;;10.17;100.00;95547.94;10508911;28;2869;-70
2024/03/12 10:04:28;;;;;;;;;;;;;;;10.12;100.00;95554.16;10511025;28;2815;-66
2024/03/12 10:09:31;;;;;;;;;;;;;;;10.39;100.00;95561.03;10513717;28;2911;-68
2024/03/12 10:14:34;;;;;;;;;;;;;;;9.68;100.00;95554.84;10513806;28;2860;-66
2024/03/12 10:19:37;;;;;;;;;;;;;;;9.81;100.00;95555.34;10509376;28;2929;-68
2024/03/12 10:24:39;;;;;;;;;;;;;;;9.75;100.00;95559.91;10509636;28;2895;-68
2024/03/12 10:29:41;;;;;;;;;;;;;;;9.57;100.00;95558.63;10508977;28;2816;-71
2024/03/12 10:34:44;;;;;;;;;;;;;;;9.32;100.00;95572.06;10513016;28;2812;-68
2024/03/12 10:39:47;;;;;;;;;;;;;;;9.34;100.00;95569.91;10510548;28;2926;-66
2024/03/12 10:44:50;;;;;;;;;;;;;;;9.18;100.00;95577.19;10507488;28;2848;-68
2024/03/12 10:49:54;;;;;;;;;;;;;;;8.88;100.00;95572.63;10507731;28;2816;-67
2024/03/12 10:54:58;;;;;;;;;;;;;;;8.76;100.00;95570.19;10513298;28;2863;-70
2024/03/12 11:00:12;;;;;;;;;;;;;;;8.94;100.00;95576.91;10504476;28;2740;-69
2024/03/12 11:05:14;;;;;;;;;;;;;;;9.57;100.00;95573.91;10514075;28;2921;-69
2024/03/12 11:10:17;;;;;;;;;;;;;;;9.82;100.00;95570.38;10504832;28;2888;-68
2024/03/12 11:15:20;;;;;;;;;;;;;;;10.11;100.00;95574.00;10505434;28;2838;-67
2024/03/12 11:20:23;;;;;;;;;;;;;;;10.00;100.00;95567.88;10504904;28;2804;-73
2024/03/12 11:25:32;;;;;;;;;;;;;;;9.94;100.00;95573.56;10504952;28;2776;-68
2024/03/12 11:30:35;;;;;;;;;;;;;;;9.48;100.00;95554.91;10505116;28;2855;-67
2024/03/12 11:35:37;;;;;;;;;;;;;;;9.28;100.00;95574.47;10510429;28;2882;-69
2024/03/12 11:40:41;;;;;;;;;;;;;;;9.27;100.00;95580.94;10518321;28;2803;-68
2024/03/12 11:45:45;;;;;;;;;;;;;;;9.88;100.00;95578.13;10506612;28;2887;-69
2024/03/12 11:50:48;;;;;;;;;;;;;;;10.22;100.00;95574.78;10515656;28;2893;-68
2024/03/12 11:55:51;;;;;;;;;;;;;;;10.00;100.00;95573.25;10509627;28;2882;-65
2024/03/12 12:00:54;;;;;;;;;;;;;;;9.52;100.00;95572.03;10517518;28;2903;-66
2024/03/12 12:05:56;;;;;;;;;;;;;;;9.73;100.00;95570.94;10515457;28;2856;-67
2024/03/12 12:10:59;;;;;;;;;;;;;;;10.06;100.00;95566.00;10522377;28;2860;-69
2024/03/12 12:16:02;;;;;;;;;;;;;;;10.17;100.00;95556.78;10521525;28;2769;-68
2024/03/12 12:21:05;;;;;;;;;;;;;;;9.85;100.00;95570.59;10512474;28;2867;-67
2024/03/12 12:26:08;;;;;;;;;;;;;;;9.37;100.00;95564.84;10520089;28;2804;-68
2024/03/12 12:31:11;;;;;;;;;;;;;;;9.75;100.00;95558.03;10511104;28;2832;-69
2024/03/12 12:36:14;;;;;;;;;;;;;;;10.51;100.00;95564.19;10516744;28;2803;-69
2024/03/12 12:41:21;;;;;;;;;;;;;;;10.89;100.00;95557.22;10510038;28;2798;-67
2024/03/12 12:46:26;;;;;;;;;;;;;;;11.12;100.00;95554.84;10512214;28;2855;-68
2024/03/12 12:51:30;;;;;;;;;;;;;;;11.58;100.00;95552.56;10531496;27;2823;-67
2024/03/12 12:56:35;;;;;;;;;;;;;;;11.56;100.00;95549.34;10509940;28;2900;-68
2024/03/12 13:01:38;;;;;;;;;;;;;;;11.60;100.00;95553.06;10512671;28;2915;-68
2024/03/12 13:06:44;;;;;;;;;;;;;;;11.09;100.00;95548.16;10517504;28;2824;-68
2024/03/12 13:11:47;;;;;;;;;;;;;;;10.20;100.00;95555.44;10513130;28;2854;-68
2024/03/12 13:16:50;;;;;;;;;;;;;;;10.02;100.00;95562.22;10500763;28;3379;-68
2024/03/12 13:21:55;;;;;;;;;;;;;;;9.66;100.00;95589.19;10511087;28;2883;-67
2024/03/12 13:26:59;;;;;;;;;;;;;;;9.85;100.00;95577.84;10506488;28;2839;-70
2024/03/12 13:32:01;;;;;;;;;;;;;;;9.88;100.00;95588.06;10512407;28;2967;-70
2024/03/12 13:37:06;;;;;;;;;;;;;;;9.53;100.00;95592.44;10508323;28;2783;-70
2024/03/12 13:42:10;;;;;;;;;;;;;;;9.57;100.00;95590.81;10507992;28;2964;-69
2024/03/12 13:47:12;;;;;;;;;;;;;;;9.67;100.00;95593.50;10509622;28;2812;-68
2024/03/12 13:52:15;;;;;;;;;;;;;;;9.78;100.00;95588.88;10510637;28;2882;-67
2024/03/12 13:57:18;;;;;;;;;;;;;;;10.17;100.00;95599.75;10509336;28;2904;-67
2024/03/12 14:02:21;;;;;;;;;;;;;;;9.06;100.00;95611.50;10513606;28;2817;-68
2024/03/12 14:07:24;;;;;;;;;;;;;;;9.47;100.00;95620.34;10510250;28;2851;-68
2024/03/12 14:12:27;;;;;;;;;;;;;;;9.78;100.00;95607.69;10507613;28;2807;-68
2024/03/12 14:17:30;;;;;;;;;;;;;;;9.65;100.00;95602.88;10507207;28;2836;-68
2024/03/12 14:22:33;;;;;;;;;;;;;;;9.94;100.00;95606.56;10513438;28;2801;-71
2024/03/12 14:27:36;;;;;;;;;;;;;;;10.01;100.00;95612.44;10508351;28;2914;-67
2024/03/12 14:32:38;;;;;;;;;;;;;;;9.95;100.00;95607.38;10506953;28;3236;-72
2024/03/12 14:37:41;;;;;;;;;;;;;;;9.52;100.00;95598.88;10511980;28;2849;-67
2024/03/12 14:42:43;;;;;;;;;;;;;;;9.36;100.00;95626.81;10506740;28;2859;-69
2024/03/12 14:47:49;;;;;;;;;;;;;;;9.28;100.00;95625.44;10482240;28;2880;-67
2024/03/12 14:52:53;;;;;;;;;;;;;;;9.08;100.00;95618.22;10511016;28;2837;-75
2024/03/12 14:57:56;;;;;;;;;;;;;;;9.37;100.00;95628.41;10504312;28;3031;-68
2024/03/12 15:02:59;;;;;;;;;;;;;;;9.11;100.00;95624.94;10506290;28;2913;-76
2024/03/12 15:08:04;;;;;;;;;;;;;;;9.22;100.00;95615.78;10502955;28;2940;-76
2024/03/12 15:13:06;;;;;;;;;;;;;;;9.36;100.00;95616.06;10508499;28;2934;-67
2024/03/12 15:23:28;;;;;;;;;;;;;;;9.32;100.00;95625.72;10509252;28;2882;-67
2024/03/12 15:28:32;;;;;;;;;;;;;;;9.33;100.00;95625.44;10511382;28;2888;-65
2024/03/12 15:33:37;;;;;;;;;;;;;;;9.34;100.00;95628.94;10513060;28;2831;-67
2024/03/12 15:38:39;;;;;;;;;;;;;;;9.40;100.00;95623.28;10511304;28;2959;-68
2024/03/12 15:43:44;;;;;;;;;;;;;;;9.31;100.00;95632.97;10507707;28;2843;-66
2024/03/12 15:48:46;;;;;;;;;;;;;;;8.83;100.00;95634.25;10505079;28;2934;-66
2024/03/12 15:53:49;;;;;;;;;;;;;;;8.70;100.00;95642.81;10509533;28;2744;-66
2024/03/12 15:58:52;;;;;;;;;;;;;;;8.52;100.00;95634.19;10507282;28;2781;-71
2024/03/12 16:03:55;;;;;;;;;;;;;;;8.48;100.00;95643.84;10512665;28;2925;-69
2024/03/12 16:08:58;;;;;;;;;;;;;;;8.58;100.00;95643.84;10509988;28;2811;-68
2024/03/12 16:14:01;;;;;;;;;;;;;;;8.65;100.00;95648.97;10510580;28;2902;-67
2024/03/12 16:19:03;;;;;;;;;;;;;;;8.48;100.00;95638.47;10509230;28;2997;-66
2024/03/12 16:24:06;;;;;;;;;;;;;;;8.41;100.00;95642.47;10510746;28;3045;-66
2024/03/12 16:29:09;;;;;;;;;;;;;;;8.40;100.00;95649.72;10505814;28;2796;-67
2024/03/12 16:34:12;;;;;;;;;;;;;;;8.33;100.00;95657.97;10517727;28;2793;-68
2024/03/12 16:39:15;;;;;;;;;;;;;;;8.30;100.00;95660.34;10514757;28;2887;-67
2024/03/12 16:44:17;;;;;;;;;;;;;;;8.28;100.00;95665.16;10510327;28;2896;-67
2024/03/12 16:49:20;;;;;;;;;;;;;;;8.18;100.00;95670.47;10518097;28;2900;-67
2024/03/12 16:54:22;;;;;;;;;;;;;;;8.10;100.00;95669.91;10515934;28;2935;-66
2024/03/12 16:59:27;;;;;;;;;;;;;;;7.91;100.00;95684.78;10515097;28;2879;-66
2024/03/12 17:04:30;;;;;;;;;;;;;;;7.89;100.00;95692.28;10516527;28;2809;-69
2024/03/12 17:09:32;;;;;;;;;;;;;;;7.55;100.00;95707.78;10514817;28;2967;-65
2024/03/12 17:14:35;;;;;;;;;;;;;;;7.30;100.00;95700.38;10519632;28;2903;-68
2024/03/12 17:19:38;;;;;;;;;;;;;;;7.00;100.00;95720.44;10517366;28;2815;-65
2024/03/12 17:24:43;;;;;;;;;;;;;;;6.61;100.00;95726.94;10513516;28;2811;-65
2024/03/12 17:29:47;;;;;;;;;;;;;;;6.48;100.00;95722.75;10513325;28;2806;-66
2024/03/12 17:34:50;;;;;;;;;;;;;;;6.42;100.00;95726.44;10512829;28;2843;-65
2024/03/12 17:39:53;;;;;;;;;;;;;;;6.52;100.00;95733.78;10511431;28;2828;-65
2024/03/12 17:44:55;;;;;;;;;;;;;;;6.50;100.00;95742.84;10510901;28;2903;-66
2024/03/12 17:49:58;;;;;;;;;;;;;;;6.58;100.00;95738.13;10510827;28;2914;-67
2024/03/12 17:55:01;;;;;;;;;;;;;;;6.57;100.00;95747.19;10504946;28;3081;-66
2024/03/12 18:00:08;;;;;;;;;;;;;;;6.54;100.00;95745.81;10498091;28;2873;-66
2024/03/12 18:05:11;;;;;;;;;;;;;;;6.60;100.00;95741.34;10500605;28;2828;-66
2024/03/12 18:10:15;;;;;;;;;;;;;;;6.66;100.00;95756.38;10508727;28;2821;-67
2024/03/12 18:15:20;;;;;;;;;;;;;;;6.61;100.00;95748.28;10505189;28;3292;-68
2024/03/12 18:20:29;;;;;;;;;;;;;;;6.47;100.00;95751.34;10508155;28;2777;-65
2024/03/12 18:25:33;;;;;;;;;;;;;;;6.42;100.00;95745.91;10508428;28;2851;-67
2024/03/12 18:30:36;;;;;;;;;;;;;;;6.50;100.00;95758.88;10511864;28;2797;-66
2024/03/12 18:35:39;;;;;;;;;;;;;;;6.65;100.00;95760.09;10502339;28;2816;-68
2024/03/12 18:40:42;;;;;;;;;;;;;;;6.70;100.00;95752.97;10504738;28;3022;-66
2024/03/12 18:45:44;;;;;;;;;;;;;;;6.75;100.00;95765.59;10500801;28;2967;-67
2024/03/12 18:50:47;;;;;;;;;;;;;;;6.73;100.00;95762.31;10507474;28;2879;-66
2024/03/12 18:55:49;;;;;;;;;;;;;;;6.73;100.00;95759.66;10517634;28;2729;-66
2024/03/12 19:00:53;;;;;;;;;;;;;;;6.73;100.00;95773.81;10502610;28;2847;-69
2024/03/12 19:05:55;;;;;;;;;;;;;;;6.27;100.00;95779.63;10502848;28;2996;-66
2024/03/12 19:11:01;;;;;;;;;;;;;;;6.06;100.00;95791.88;10502939;28;2863;-65
2024/03/12 19:16:07;;;;;;;;;;;;;;;5.88;100.00;95798.25;10506720;28;2777;-66
2024/03/12 19:21:10;;;;;;;;;;;;;;;5.84;100.00;95800.59;10503702;28;2839;-67
2024/03/12 19:26:14;;;;;;;;;;;;;;;5.73;100.00;95793.50;10502603;28;2860;-67
2024/03/12 19:31:16;;;;;;;;;;;;;;;5.77;100.00;95804.47;10498044;28;2838;-66
2024/03/12 19:36:20;;;;;;;;;;;;;;;5.61;100.00;95798.09;10502198;28;2895;-66
2024/03/12 19:41:23;;;;;;;;;;;;;;;5.56;100.00;95800.66;10502542;28;2915;-66
2024/03/12 19:46:25;;;;;;;;;;;;;;;5.60;100.00;95802.63;10502840;28;2808;-66
2024/03/12 19:51:28;;;;;;;;;;;;;;;5.60;100.00;95802.63;10501426;28;2856;-64
2024/03/12 19:56:31;;;;;;;;;;;;;;;5.58;100.00;95811.88;10505674;28;3035;-66
2024/03/12 20:01:34;;;;;;;;;;;;;;;5.60;100.00;95796.47;10497295;28;2823;-67
2024/03/12 20:06:37;;;;;;;;;;;;;;;5.63;100.00;95811.97;10502356;28;2948;-67
2024/03/12 20:11:42;;;;;;;;;;;;;;;5.56;100.00;95811.34;10505147;28;2871;-68
2024/03/12 20:16:45;;;;;;;;;;;;;;;5.53;100.00;95814.47;10511497;28;2872;-68
2024/03/12 20:21:47;;;;;;;;;;;;;;;5.56;100.00;95816.66;10509921;28;2923;-67
2024/03/12 20:26:50;;;;;;;;;;;;;;;5.54;100.00;95816.09;10513770;28;3056;-67
2024/03/12 20:31:53;;;;;;;;;;;;;;;5.42;100.00;95821.50;10513911;28;2878;-67
2024/03/12 20:36:56;;;;;;;;;;;;;;;5.49;100.00;95816.00;10510321;28;3055;-66
2024/03/12 20:42:00;;;;;;;;;;;;;;;5.52;100.00;95826.19;10507175;28;3006;-66
2024/03/12 20:47:03;;;;;;;;;;;;;;;5.61;100.00;95825.56;10507357;28;2925;-66
2024/03/12 20:52:07;;;;;;;;;;;;;;;5.64;100.00;95819.72;10514841;28;2887;-66
2024/03/12 20:57:11;;;;;;;;;;;;;;;5.64;100.00;95825.06;10510090;28;2909;-68
2024/03/12 21:02:13;;;;;;;;;;;;;;;5.63;100.00;95817.31;10511076;28;2984;-66
2024/03/12 21:07:16;;;;;;;;;;;;;;;5.68;100.00;95830.75;10505195;28;2853;-66
2024/03/12 21:12:20;;;;;;;;;;;;;;;5.68;100.00;95820.06;10507038;28;2869;-66
2024/03/12 21:17:24;;;;;;;;;;;;;;;5.72;100.00;95815.06;10509428;28;2832;-66
2024/03/12 21:22:27;;;;;;;;;;;;;;;5.77;100.00;95807.94;10504555;28;2956;-64
2024/03/12 21:27:30;;;;;;;;;;;;;;;5.80;100.00;95812.00;10506922;28;2875;-65
2024/03/12 21:32:34;;;;;;;;;;;;;;;5.79;100.00;95811.19;10512948;28;2909;-66
2024/03/12 21:37:38;;;;;;;;;;;;;;;5.76;100.00;95809.00;10501194;28;2836;-66
2024/03/12 21:42:42;;;;;;;;;;;;;;;5.83;100.00;95806.97;10508267;28;2861;-66
2024/03/12 21:47:45;;;;;;;;;;;;;;;5.90;100.00;95812.94;10511007;28;2811;-67
2024/03/12 21:52:50;;;;;;;;;;;;;;;5.93;100.00;95809.03;10512069;28;2834;-72
2024/03/12 21:57:53;;;;;;;;;;;;;;;5.94;100.00;95814.13;10509276;28;2851;-73
2024/03/12 22:02:57;;;;;;;;;;;;;;;5.94;100.00;95798.13;10513128;28;2843;-69
2024/03/12 22:08:00;;;;;;;;;;;;;;;5.97;100.00;95797.63;10512585;28;2945;-69
2024/03/12 22:13:02;;;;;;;;;;;;;;;6.00;100.00;95793.66;10508850;28;2773;-71
2024/03/12 22:18:06;;;;;;;;;;;;;;;5.82;100.00;95792.03;10523151;28;2903;-65
2024/03/12 22:23:11;;;;;;;;;;;;;;;5.88;100.00;95796.38;10513795;28;2996;-66
2024/03/12 22:28:15;;;;;;;;;;;;;;;5.90;100.00;95793.47;10513030;28;2809;-66
2024/03/12 22:33:17;;;;;;;;;;;;;;;5.96;100.00;95784.53;10511263;28;2846;-66
2024/03/12 22:38:20;;;;;;;;;;;;;;;6.00;100.00;95791.00;10509929;28;2912;-68
2024/03/12 22:43:25;;;;;;;;;;;;;;;6.09;100.00;95784.19;10505208;28;2899;-66
2024/03/12 22:48:28;;;;;;;;;;;;;;;6.10;100.00;95774.31;10509907;28;3038;-67
2024/03/12 22:53:32;;;;;;;;;;;;;;;6.13;100.00;95779.97;10509620;28;2905;-66
2024/03/12 22:58:35;;;;;;;;;;;;;;;6.20;100.00;95775.28;10508198;28;2958;-64
2024/03/12 23:03:37;;;;;;;;;;;;;;;6.17;100.00;95770.44;10512760;28;2885;-68
2024/03/12 23:08:40;;;;;;;;;;;;;;;6.19;100.00;95764.84;10514433;28;2817;-68
2024/03/12 23:13:42;;;;;;;;;;;;;;;6.09;100.00;95764.69;10515238;28;2888;-65
2024/03/12 23:18:46;;;;;;;;;;;;;;;5.96;100.00;95752.50;10507672;28;2883;-65
2024/03/12 23:23:49;;;;;;;;;;;;;;;5.87;100.00;95757.44;10500312;28;2889;-65
2024/03/12 23:28:53;;;;;;;;;;;;;;;5.80;100.00;95761.31;10505200;28;2852;-65
2024/03/12 23:33:55;;;;;;;;;;;;;;;5.74;100.00;95762.28;10510795;28;2835;-64
2024/03/12 23:38:58;;;;;;;;;;;;;;;5.73;100.00;95760.69;10509022;28;2953;-66
2024/03/12 23:44:01;;;;;;;;;;;;;;;5.80;100.00;95753.31;10505520;28;2830;-72
2024/03/12 23:49:06;;;;;;;;;;;;;;;5.76;100.00;95746.84;10507666;28;2757;-74
2024/03/12 23:54:09;;;;;;;;;;;;;;;5.75;100.00;95740.69;10503371;28;2918;-68
2024/03/12 23:59:11;;;;;;;;;;;;;;;5.79;100.00;95741.84;10512621;28;2864;-67
